Belfast, Maine
Current Conditions -  °F | °C
As of 7:15 AM on Thursday 27 Nov 2014 (Local Time) from KRKD Reporting Station
Overcast Overcast  
Wind Chill: 21°   Ceiling: 3400
Heat Index: 30°   Visibility: 8mi
Dew Point: 25°   Wind: 10mph
Humidity: 80%   Direction: 360°N
Pressure: 29.74"   Gusts: 18mph
Location:  44.42°N, 69.02°W
Report Text: KRKD 271215Z AUTO 36009G16KT 310V030 8SM SCT027 BKN034 OVC060 M01/M04 A2974 RMK AO1
Loading
Personal Weather Stations






























Interactive Weather Map New forecast layout! Learn more

10-Day Weather Forecast

Advertisements
Track Severe Weather on mobile